Flight Track Log - Related Links

Times and Time Zones

All times are in EDT time to prevent confusion due to time zone crossing. See the N983CA flight status page for this flight to view local times or setup timezone preferences in your user account.


Time Position Orientation Groundspeed Altitude Reporting Facility
EDT Latitude Longitude Course Direction KTS MPH feet Rate Location/Type
Sun 01:52:48 AM 37.6667 -122.3667 133° Southeast 174 200 1,700  Level Northern Cal TRACON
Sun 01:53:27 AM 37.6956 -122.3625 North 201 231 3,100 2,303 Climbing Oakland Center
Sun 01:54:27 AM 37.7153 -122.4294 290° West 262 302 5,500 2,750 Climbing Oakland Center
Sun 01:55:27 AM 37.6408 -122.4597 198° South 283 326 8,600 2,727 Climbing Oakland Center
Sun 01:56:00 AM 37.2615 -122.1005 130° Southeast  Level FlightAware Approximate
Sun 01:56:28 AM 37.5619 -122.4442 171° South 311 358 11,000  Level Oakland Center
Sun 01:57:00 AM 37.1680 -121.9795 133° Southeast  Level FlightAware Approximate
Sun 01:57:28 AM 37.5075 -122.3539 127° Southeast 326 375 13,200  Level Oakland Center
Sun 01:58:28 AM 37.4481 -122.2592 128° Southeast 343 395 15,300 1,983 Climbing Oakland Center
Sun 01:59:29 AM 37.3867 -122.1614 128° Southeast 356 410 17,200 1,736 Climbing Oakland Center
Sun 02:00:29 AM 37.3222 -122.0622 129° Southeast 366 421 18,800 1,600 Climbing Oakland Center
Sun 02:01:29 AM 37.2578 -121.9575 128° Southeast 378 435 20,400 1,537 Climbing Oakland Center
Sun 02:02:30 AM 37.1903 -121.8517 129° Southeast 388 447 21,900 1,438 Climbing Oakland Center
Sun 02:03:30 AM 37.1242 -121.7481 129° Southeast 398 458 23,300 1,350 Climbing Oakland Center
Sun 02:04:30 AM 37.0497 -121.6344 129° Southeast 403 464 24,600 1,240 Climbing Oakland Center
Sun 02:05:31 AM 36.9778 -121.5217 129° Southeast 412 474 25,800 1,190 Climbing Oakland Center
Sun 02:06:31 AM 36.9058 -121.4075 128° Southeast 419 482 27,000 600 Climbing Oakland Center
Sun 02:07:31 AM 36.8306 -121.2936 130° Southeast 425 489 27,000  Level Oakland Center
Sun 02:08:32 AM 36.7483 -121.1683 129° Southeast 424 488 27,000  Level Oakland Center
Sun 02:09:32 AM 36.6739 -121.0533 129° Southeast 424 488 27,000  Level Oakland Center
Sun 02:10:32 AM 36.6006 -120.9411 129° Southeast 418 481 27,000  Level Oakland Center
Sun 02:11:33 AM 36.5267 -120.8278 129° Southeast 420 483 27,000  Level Oakland Center
Sun 02:12:33 AM 36.4550 -120.7156 128° Southeast 415 478 27,000  Level Oakland Center
Sun 02:13:33 AM 36.3806 -120.6078 131° Southeast 411 473 27,000  Level Oakland Center
Sun 02:14:33 AM 36.3083 -120.4986 129° Southeast 408 470 27,000  Level Oakland Center
Sun 02:15:34 AM 36.2347 -120.3869 129° Southeast 415 478 27,000  Level Oakland Center
Sun 02:16:34 AM 36.1611 -120.2778 130° Southeast 414 476 27,000  Level Oakland Center
Sun 02:17:34 AM 36.0894 -120.1708 130° Southeast 405 466 27,000  Level Oakland Center
Sun 02:18:35 AM 36.0172 -120.0631 130° Southeast 406 467 27,000  Level Oakland Center
Sun 02:19:35 AM 35.9461 -119.9597 130° Southeast 397 457 27,000  Level Oakland Center
Sun 02:20:35 AM 35.8725 -119.8511 130° Southeast 405 466 27,000  Level Oakland Center
Sun 02:21:36 AM 35.8014 -119.7450 130° Southeast 403 464 27,000  Level Oakland Center
Sun 02:22:36 AM 35.7275 -119.6364 130° Southeast 408 470 27,000  Level Oakland Center
Sun 02:23:36 AM 35.6542 -119.5292 130° Southeast 408 470 27,000  Level Oakland Center
Sun 02:24:37 AM 35.5806 -119.4236 131° Southeast 406 467 27,000  Level Oakland Center
Sun 02:25:34 AM 35.5225 -119.3367 129° Southeast 409 471 27,000  Level Los Angeles Center
Sun 02:26:34 AM 35.4500 -119.2311 130° Southeast 407 468 27,000  Level Los Angeles Center
Sun 02:27:35 AM 35.3772 -119.1250 130° Southeast 406 467 27,000  Level Los Angeles Center
Sun 02:28:35 AM 35.3028 -119.0189 131° Southeast 408 470 27,000  Level Los Angeles Center
Sun 02:29:35 AM 35.2297 -118.9131 130° Southeast 408 470 27,000 -50 Level Los Angeles Center
Sun 02:30:36 AM 35.1411 -118.7867 131° Southeast 408 470 26,900  Descending Los Angeles Center
Sun 02:31:36 AM 35.0675 -118.6817 131° Southeast 408 470 27,000  Climbing Los Angeles Center
Sun 02:32:37 AM 34.9931 -118.5778 131° Southeast 406 467 26,900 -347 Descending Los Angeles Center
Sun 02:33:37 AM 34.9189 -118.4717 130° Southeast 410 472 26,300 -694 Descending Los Angeles Center
Sun 02:34:38 AM 34.8561 -118.3831 131° Southeast 417 480 25,500 -893 Descending Los Angeles Center
Sun 02:35:38 AM 34.7828 -118.2800 131° Southeast 408 470 24,500 -1,100 Descending Los Angeles Center
Sun 02:36:38 AM 34.6964 -118.1589 131° Southeast 398 458 23,300 -1,091 Descending Los Angeles Center
Sun 02:37:39 AM 34.6264 -118.0578 130° Southeast 394 453 22,300 -992 Descending Los Angeles Center
Sun 02:38:39 AM 34.5761 -117.9467 119° Southeast 381 438 21,300 -1,300 Descending Los Angeles Center
Sun 02:39:39 AM 34.5267 -117.8378 119° Southeast 375 432 19,700 -1,537 Descending Los Angeles Center
Sun 02:40:40 AM 34.4769 -117.7306 119° Southeast 369 425 18,200 -1,537 Descending Los Angeles Center
Sun 02:41:40 AM 34.4286 -117.6267 119° Southeast 360 414 16,600 -1,600 Descending Los Angeles Center
Sun 02:42:40 AM 34.3839 -117.5294 119° Southeast 337 388 15,000 -1,537 Descending Los Angeles Center
Sun 02:43:41 AM 34.3422 -117.4372 119° Southeast 332 382 13,500 -1,934 Descending Los Angeles Center
Sun 02:44:41 AM 34.3006 -117.3467 119° Southeast 317 365 11,100 -2,300 Descending Los Angeles Center
Sun 02:45:41 AM 34.2375 -117.3064 152° Southeast 271 312 8,900 -1,587 Descending Los Angeles Center
Sun 02:46:42 AM 34.1656 -117.3017 177° South 255 293 7,900 -1,137 Descending Los Angeles Center
Sun 02:47:16 AM 34.1167 -117.3000 178° South 230 265 7,100 -1,660 Descending Southern California TRACON
Sun 02:48:16 AM 34.0833 -117.3333 220° Southwest 204 235 5,300 -1,429 Descending Southern California TRACON
Sun 02:49:22 AM 34.0500 -117.4000 239° Southwest 182 209 4,100 -1,091 Descending Southern California TRACON
Sun 02:50:17 AM 34.0500 -117.4500 270° West 158 182 3,100 -942 Descending Southern California TRACON
Sun 02:51:23 AM 34.0500 -117.5000 270° West 138 159 2,200 -818 Descending Southern California TRACON

Login

Don't have an account? Register now (free) for customized features, flight alerts, and more!